Time;durP1;ratioP1;P1;durP2;ratioP2;P2;SDS_P1;SDS_P2;PMS_P1;PMS_P2;Temp;Humidity;BMP_temperature;BMP_pressure;BME280_temperature;BME280_humidity;BME280_pressure;Samples;Min_cycle;Max_cycle;Signal;HPM_P1;HPM_P2
2022/04/28 00:00:14;;;;;;;13.10;9.40;;;14.10;60.10;;;;;;5095930;28;20077;-80
2022/04/28 00:02:40;;;;;;;13.68;9.15;;;14.10;60.00;;;;;;5087596;28;20024;-80
2022/04/28 00:05:09;;;;;;;16.60;9.05;;;14.10;60.20;;;;;;5090675;28;20063;-80
2022/04/28 00:07:36;;;;;;;14.25;8.95;;;14.10;60.00;;;;;;5095196;28;20099;-80
2022/04/28 00:10:03;;;;;;;15.27;9.85;;;14.20;59.70;;;;;;5095968;28;20056;-80
2022/04/28 00:12:28;;;;;;;14.55;8.90;;;14.10;59.90;;;;;;5094898;28;20494;-80
2022/04/28 00:14:54;;;;;;;16.63;9.48;;;14.10;59.70;;;;;;5095346;28;20046;-80
2022/04/28 00:17:20;;;;;;;15.18;9.30;;;14.10;59.70;;;;;;5096021;28;20088;-80
2022/04/28 00:19:46;;;;;;;17.95;8.82;;;14.10;59.80;;;;;;5096063;28;20024;-81
2022/04/28 00:22:13;;;;;;;18.00;10.98;;;14.20;59.60;;;;;;5085018;28;20039;-80
2022/04/28 00:24:39;;;;;;;13.32;8.55;;;14.00;59.60;;;;;;5075761;28;20081;-80
2022/04/28 00:27:04;;;;;;;16.10;9.95;;;14.00;59.50;;;;;;5074263;28;20029;-80
2022/04/28 00:29:30;;;;;;;16.33;10.15;;;14.00;59.80;;;;;;5075915;28;20029;-79
2022/04/28 00:31:55;;;;;;;17.27;10.13;;;14.10;59.50;;;;;;5075573;28;20033;-80
2022/04/28 00:34:21;;;;;;;14.13;9.35;;;14.10;59.40;;;;;;5075725;28;20040;-80
2022/04/28 00:36:47;;;;;;;14.63;9.23;;;14.00;59.30;;;;;;5074363;28;20074;-80
2022/04/28 00:39:12;;;;;;;14.30;9.02;;;14.10;59.20;;;;;;5075117;28;20043;-80
2022/04/28 00:41:38;;;;;;;13.88;8.82;;;14.10;59.00;;;;;;5075507;28;20024;-80
2022/04/28 00:44:07;;;;;;;12.30;8.77;;;14.10;59.10;;;;;;5073898;28;20112;-80
2022/04/28 00:46:33;;;;;;;16.67;9.15;;;14.10;59.00;;;;;;5075317;28;20025;-80
2022/04/28 00:51:43;;;;;;;16.38;9.80;;;14.20;58.80;;;;;;5075518;28;20066;-80
2022/04/28 00:54:09;;;;;;;16.85;10.45;;;14.20;58.70;;;;;;5074683;28;20464;-80
2022/04/28 00:56:34;;;;;;;15.25;9.85;;;14.20;58.70;;;;;;5075321;28;20039;-80
2022/04/28 00:59:04;;;;;;;18.63;10.23;;;14.20;58.50;;;;;;5073947;28;20029;-80
2022/04/28 01:01:30;;;;;;;14.27;9.82;;;14.30;58.40;;;;;;5075176;28;20073;-80
2022/04/28 01:03:56;;;;;;;17.42;9.73;;;14.30;58.20;;;;;;5090897;28;20104;-80
2022/04/28 01:06:22;;;;;;;14.38;10.35;;;14.30;58.50;;;;;;5092077;28;20102;-80
2022/04/28 01:08:48;;;;;;;14.30;9.82;;;14.20;58.50;;;;;;5093846;28;20051;-80
2022/04/28 01:11:16;;;;;;;14.90;9.10;;;14.20;58.50;;;;;;5095364;28;20016;-80
2022/04/28 01:13:42;;;;;;;15.05;10.68;;;14.20;58.50;;;;;;5092983;28;20024;-80
2022/04/28 01:16:08;;;;;;;17.35;9.88;;;14.20;58.30;;;;;;5073627;28;20512;-80
2022/04/28 01:18:34;;;;;;;17.13;10.40;;;14.20;58.30;;;;;;5074915;28;20033;-80
2022/04/28 01:21:04;;;;;;;17.15;9.68;;;14.20;58.30;;;;;;5073586;28;20032;-80
2022/04/28 01:23:32;;;;;;;17.02;10.05;;;14.20;58.40;;;;;;5074567;28;20119;-80
2022/04/28 01:25:58;;;;;;;14.85;8.95;;;14.20;58.50;;;;;;5088594;28;20033;-80
2022/04/28 01:28:23;;;;;;;16.67;10.38;;;14.20;58.40;;;;;;5073969;28;20029;-80
2022/04/28 01:30:49;;;;;;;20.25;10.88;;;14.20;58.40;;;;;;5058458;28;20040;-80
2022/04/28 01:33:14;;;;;;;13.95;8.48;;;14.20;58.40;;;;;;5059013;28;20036;-80
2022/04/28 01:35:40;;;;;;;14.50;10.10;;;14.10;58.50;;;;;;5090073;28;20031;-80
2022/04/28 01:38:06;;;;;;;16.67;10.32;;;14.10;58.50;;;;;;5099415;28;20101;-80
2022/04/28 01:40:31;;;;;;;15.85;9.48;;;14.10;58.50;;;;;;5095294;28;20029;-80
2022/04/28 01:42:57;;;;;;;15.60;10.20;;;14.00;58.70;;;;;;5077342;28;20021;-80
2022/04/28 01:45:22;;;;;;;16.23;9.93;;;14.10;58.70;;;;;;5091567;28;20809;-80
2022/04/28 01:47:48;;;;;;;16.67;9.95;;;14.10;58.60;;;;;;5098778;28;20052;-80
2022/04/28 01:50:14;;;;;;;15.00;9.52;;;14.00;58.80;;;;;;5086483;28;20765;-81
2022/04/28 01:55:24;;;;;;;21.75;10.25;;;13.90;59.00;;;;;;5078521;28;20585;-80
2022/04/28 01:57:50;;;;;;;14.85;10.10;;;13.90;59.10;;;;;;5078568;28;20056;-80
2022/04/28 02:00:16;;;;;;;16.17;9.02;;;13.90;59.10;;;;;;5078354;28;20487;-80
2022/04/28 02:02:43;;;;;;;17.20;9.90;;;13.90;59.20;;;;;;5078461;28;20063;-80
2022/04/28 02:05:10;;;;;;;16.95;10.65;;;13.80;59.30;;;;;;5078549;28;20024;-80
2022/04/28 02:07:36;;;;;;;17.90;10.25;;;13.90;59.10;;;;;;5098637;28;20020;-80
2022/04/28 02:10:03;;;;;;;16.02;9.68;;;13.90;59.00;;;;;;5095140;28;20048;-80
2022/04/28 02:12:29;;;;;;;16.58;10.38;;;13.90;59.00;;;;;;5097295;28;20031;-80
2022/04/28 02:14:55;;;;;;;16.20;11.13;;;13.80;59.10;;;;;;5098500;28;20024;-80
2022/04/28 02:17:28;;;;;;;17.00;10.57;;;13.80;59.30;;;;;;5086007;28;20114;-80
2022/04/28 02:19:57;;;;;;;16.40;9.88;;;13.80;59.00;;;;;;5076560;28;20024;-80
2022/04/28 02:22:22;;;;;;;21.27;10.75;;;14.00;58.80;;;;;;5078075;28;20025;-80
2022/04/28 02:24:50;;;;;;;14.93;9.57;;;13.90;58.90;;;;;;5076686;28;20016;-80
2022/04/28 02:27:15;;;;;;;18.42;10.00;;;13.90;58.90;;;;;;5076808;28;20074;-80
2022/04/28 02:29:41;;;;;;;15.75;9.27;;;13.80;59.20;;;;;;5077779;28;20028;-80
2022/04/28 02:32:07;;;;;;;15.32;10.07;;;13.80;59.20;;;;;;5085690;28;20039;-80
2022/04/28 02:34:34;;;;;;;16.65;10.35;;;13.80;59.10;;;;;;5098119;28;20504;-80
2022/04/28 02:37:03;;;;;;;16.00;10.38;;;13.90;58.90;;;;;;5097610;28;20066;-80
2022/04/28 02:39:28;;;;;;;15.30;8.77;;;13.80;58.90;;;;;;5096329;28;20032;-80
2022/04/28 02:41:54;;;;;;;15.77;8.35;;;13.90;58.90;;;;;;5097983;28;20026;-80
2022/04/28 02:44:20;;;;;;;15.25;9.85;;;13.90;59.00;;;;;;5094364;28;20115;-80
2022/04/28 02:46:45;;;;;;;21.83;11.13;;;13.80;59.00;;;;;;5097868;28;20046;-80
2022/04/28 02:49:12;;;;;;;13.02;8.30;;;13.80;58.80;;;;;;5096316;28;20111;-80
2022/04/28 02:51:39;;;;;;;15.10;9.82;;;13.80;58.80;;;;;;5076146;28;20479;-80
2022/04/28 02:54:07;;;;;;;15.07;9.05;;;13.80;58.80;;;;;;5077546;28;20049;-80
2022/04/28 02:56:34;;;;;;;18.45;9.75;;;13.90;58.80;;;;;;5077467;28;20029;-80
2022/04/28 02:58:59;;;;;;;18.10;10.50;;;13.80;58.90;;;;;;5096092;28;20034;-80
2022/04/28 03:01:26;;;;;;;14.10;9.15;;;13.80;58.80;;;;;;5105428;28;20036;-80
2022/04/28 03:03:53;;;;;;;17.85;9.88;;;13.70;59.10;;;;;;5077641;28;20021;-80
2022/04/28 03:11:49;;;;;;;15.40;8.88;;;13.70;59.50;;;;;;5097745;28;20098;-80
2022/04/28 03:14:15;;;;;;;17.13;10.60;;;13.70;59.30;;;;;;5095427;28;20028;-80
2022/04/28 03:16:41;;;;;;;15.13;9.85;;;13.70;59.30;;;;;;5075449;28;20037;-80
2022/04/28 03:19:07;;;;;;;18.50;10.18;;;13.70;59.10;;;;;;5077236;28;20056;-80
2022/04/28 03:21:33;;;;;;;20.80;11.18;;;13.70;59.00;;;;;;5076884;28;20142;-80
2022/04/28 03:23:59;;;;;;;17.33;11.00;;;13.70;59.00;;;;;;5079438;28;20089;-81
2022/04/28 03:26:26;;;;;;;21.05;11.07;;;13.60;59.10;;;;;;5097252;28;20032;-81
2022/04/28 03:28:51;;;;;;;15.32;9.98;;;13.70;59.10;;;;;;5097167;28;20059;-81
2022/04/28 03:31:17;;;;;;;19.40;10.55;;;13.60;59.20;;;;;;5097271;28;20505;-80
2022/04/28 03:33:43;;;;;;;18.30;10.10;;;13.60;59.30;;;;;;5093647;28;20602;-81
2022/04/28 03:38:53;;;;;;;17.25;10.07;;;13.50;59.70;;;;;;5077106;28;20036;-81
2022/04/28 03:41:19;;;;;;;17.63;9.93;;;13.50;59.70;;;;;;5075218;28;20074;-81
2022/04/28 03:43:45;;;;;;;18.67;9.90;;;13.60;59.50;;;;;;5076496;28;20029;-82
2022/04/28 03:46:11;;;;;;;18.88;9.75;;;13.50;59.60;;;;;;5084278;28;20120;-80
2022/04/28 03:48:37;;;;;;;17.70;10.75;;;13.50;59.70;;;;;;5096051;28;20024;-81
2022/04/28 03:51:04;;;;;;;18.15;11.20;;;13.50;59.60;;;;;;5085091;28;20119;-81
2022/04/28 03:53:30;;;;;;;16.67;10.07;;;13.40;60.10;;;;;;5076512;28;20035;-81
2022/04/28 03:55:57;;;;;;;15.80;10.52;;;13.50;60.20;;;;;;5075155;28;20185;-82
2022/04/28 03:58:26;;;;;;;15.75;10.48;;;13.50;59.80;;;;;;5076225;28;20089;-81
2022/04/28 04:00:53;;;;;;;17.88;12.27;;;13.40;60.20;;;;;;5071733;28;20060;-81
2022/04/28 04:03:20;;;;;;;21.85;11.68;;;13.50;59.80;;;;;;5062448;28;20077;-81
2022/04/28 04:05:46;;;;;;;23.13;11.45;;;13.50;59.60;;;;;;5096492;28;20036;-81
2022/04/28 04:08:12;;;;;;;19.48;10.90;;;13.60;59.50;;;;;;5083002;28;20020;-81
2022/04/28 04:10:38;;;;;;;17.58;11.15;;;13.50;59.50;;;;;;5074531;28;20479;-81
2022/04/28 04:13:04;;;;;;;17.25;9.50;;;13.40;59.80;;;;;;5076050;28;20029;-81
2022/04/28 04:15:30;;;;;;;20.52;11.55;;;13.40;59.80;;;;;;5074490;28;20035;-80
2022/04/28 04:17:56;;;;;;;16.25;10.05;;;13.50;59.70;;;;;;5095211;28;20024;-81
2022/04/28 04:20:22;;;;;;;18.52;10.63;;;13.50;59.60;;;;;;5095038;28;20030;-80
2022/04/28 04:22:48;;;;;;;21.30;10.77;;;13.40;59.70;;;;;;5092758;28;20428;-81
2022/04/28 04:25:13;;;;;;;22.17;11.50;;;13.40;59.90;;;;;;5096257;28;20024;-80
2022/04/28 04:27:39;;;;;;;26.23;12.65;;;13.50;59.80;;;;;;5095771;28;20031;-81
2022/04/28 04:32:50;;;;;;;17.73;10.80;;;13.30;59.80;;;;;;5093590;28;20161;-80
2022/04/28 04:35:17;;;;;;;22.00;12.10;;;13.40;59.80;;;;;;5075800;28;20031;-81
2022/04/28 04:37:43;;;;;;;21.13;11.75;;;13.30;60.20;;;;;;5086566;28;20043;-81
2022/04/28 04:40:12;;;;;;;22.20;11.70;;;13.30;60.20;;;;;;5096039;28;20402;-81
2022/04/28 04:42:38;;;;;;;17.25;10.40;;;13.30;60.40;;;;;;5094504;28;20444;-81
2022/04/28 04:45:08;;;;;;;18.80;11.43;;;13.20;60.50;;;;;;5082545;28;20169;-81
2022/04/28 04:47:34;;;;;;;22.13;12.45;;;13.20;60.50;;;;;;5074633;28;20020;-89
2022/04/28 04:50:00;;;;;;;20.65;12.32;;;13.30;60.20;;;;;;5096153;28;20050;-82
2022/04/28 05:51:08;;;;;;;18.45;10.40;;;11.80;65.80;;;;;;5070771;28;20849;-84
2022/04/28 05:53:33;;;;;;;20.48;10.40;;;11.90;65.90;;;;;;5054222;28;20487;-82
2022/04/28 05:55:59;;;;;;;16.83;11.07;;;12.20;65.10;;;;;;5055672;28;20033;-83
2022/04/28 05:58:25;;;;;;;22.98;11.18;;;12.50;64.10;;;;;;5051782;28;20427;-85
2022/04/28 06:00:51;;;;;;;18.77;10.07;;;12.80;63.10;;;;;;5060368;28;20028;-84
2022/04/28 06:03:17;;;;;;;20.55;11.05;;;13.00;62.80;;;;;;5051135;28;20041;-84
2022/04/28 06:05:42;;;;;;;17.75;11.13;;;13.10;61.80;;;;;;5048939;28;20033;-84
2022/04/28 06:08:08;;;;;;;22.90;11.60;;;13.20;61.00;;;;;;5033669;28;20595;-84
2022/04/28 06:10:34;;;;;;;24.55;12.00;;;13.30;60.90;;;;;;5054420;28;20119;-85
2022/04/28 06:13:00;;;;;;;20.77;10.02;;;13.40;60.60;;;;;;5048834;28;20108;-84
2022/04/28 06:15:25;;;;;;;22.05;11.45;;;13.40;60.80;;;;;;5048120;28;20087;-84
2022/04/28 06:17:51;;;;;;;20.95;11.63;;;13.50;60.30;;;;;;5049551;28;20120;-84
2022/04/28 06:20:17;;;;;;;20.20;10.98;;;13.50;60.10;;;;;;5049517;28;20035;-85
2022/04/28 06:22:44;;;;;;;22.35;11.20;;;13.60;59.80;;;;;;5050056;28;20021;-84
2022/04/28 06:25:10;;;;;;;19.35;10.75;;;13.60;59.70;;;;;;5048884;28;20091;-84
2022/04/28 06:27:36;;;;;;;19.63;10.77;;;13.60;59.70;;;;;;5045735;28;20033;-81
2022/04/28 06:30:03;;;;;;;21.70;11.60;;;13.70;59.60;;;;;;5048409;28;20490;-81
2022/04/28 06:32:29;;;;;;;22.00;11.70;;;13.70;59.60;;;;;;5047341;28;20032;-83
2022/04/28 06:34:54;;;;;;;19.35;11.32;;;13.70;59.50;;;;;;5050172;28;20025;-82
2022/04/28 06:37:20;;;;;;;24.00;12.43;;;13.70;59.30;;;;;;5044259;28;20071;-82
2022/04/28 06:39:46;;;;;;;25.58;12.45;;;13.70;59.00;;;;;;5044614;28;20060;-82
2022/04/28 06:42:12;;;;;;;22.02;11.13;;;13.80;59.00;;;;;;5051206;28;20056;-82
2022/04/28 06:44:38;;;;;;;21.52;12.13;;;13.80;59.00;;;;;;5050292;28;20027;-83
2022/04/28 06:47:05;;;;;;;20.63;10.80;;;13.80;59.10;;;;;;5051648;28;20096;-83
2022/04/28 06:49:31;;;;;;;19.30;10.30;;;13.80;58.90;;;;;;5045644;28;20046;-83
2022/04/28 06:51:57;;;;;;;20.13;10.43;;;13.80;58.90;;;;;;5048682;28;20029;-82
2022/04/28 06:54:23;;;;;;;21.50;11.85;;;13.80;58.90;;;;;;5069861;28;20052;-82
2022/04/28 06:56:48;;;;;;;19.20;11.15;;;13.80;58.50;;;;;;5071307;28;20017;-82
2022/04/28 06:59:14;;;;;;;17.13;10.13;;;13.80;58.60;;;;;;5062394;28;20037;-83
2022/04/28 07:01:40;;;;;;;18.35;10.77;;;13.90;58.50;;;;;;5042721;28;20026;-82
2022/04/28 07:04:06;;;;;;;16.75;9.95;;;14.00;58.30;;;;;;5037447;28;20056;-82
2022/04/28 07:06:31;;;;;;;18.17;10.80;;;14.00;58.50;;;;;;5037383;28;20033;-82
2022/04/28 07:08:57;;;;;;;26.85;10.50;;;14.00;58.50;;;;;;5036640;28;20087;-83
2022/04/28 07:11:26;;;;;;;19.67;10.80;;;14.00;58.30;;;;;;5037793;28;20026;-83
2022/04/28 07:13:52;;;;;;;18.55;10.23;;;14.10;58.20;;;;;;5037174;28;20033;-83
2022/04/28 07:16:18;;;;;;;20.70;10.63;;;14.10;58.40;;;;;;5037673;28;20148;-83
2022/04/28 07:18:44;;;;;;;15.50;9.57;;;14.20;58.10;;;;;;5037879;28;20056;-82
2022/04/28 07:21:10;;;;;;;20.10;9.48;;;14.20;58.00;;;;;;5037102;28;20026;-82
2022/04/28 07:23:35;;;;;;;19.13;10.50;;;14.30;57.90;;;;;;5037635;28;20037;-83
2022/04/28 07:26:01;;;;;;;20.23;11.05;;;14.30;57.80;;;;;;5035669;28;20021;-83
2022/04/28 07:28:27;;;;;;;15.60;9.55;;;14.30;57.60;;;;;;5037450;28;20021;-83
2022/04/28 07:30:52;;;;;;;16.55;10.15;;;14.30;57.80;;;;;;5033212;28;20021;-81
2022/04/28 07:33:18;;;;;;;21.90;11.20;;;14.30;58.00;;;;;;5017531;28;20022;-82
2022/04/28 07:35:43;;;;;;;18.73;9.82;;;14.30;57.60;;;;;;5017539;28;20551;-82
2022/04/28 07:38:09;;;;;;;18.92;9.50;;;14.40;57.90;;;;;;5022521;28;20033;-82
2022/04/28 07:40:36;;;;;;;17.73;10.02;;;14.30;58.30;;;;;;5037122;28;20051;-82
2022/04/28 07:43:02;;;;;;;20.48;12.02;;;14.40;58.30;;;;;;5036709;28;20033;-82
2022/04/28 07:45:28;;;;;;;20.20;10.48;;;14.50;58.30;;;;;;5036812;28;20072;-82
2022/04/28 07:47:54;;;;;;;17.17;9.48;;;14.50;58.10;;;;;;5036750;28;20115;-82
2022/04/28 07:50:20;;;;;;;19.90;10.07;;;14.50;57.70;;;;;;5036770;28;20057;-83
2022/04/28 07:52:46;;;;;;;19.38;11.18;;;14.50;57.50;;;;;;5052289;28;20021;-83
2022/04/28 07:55:11;;;;;;;18.30;9.15;;;14.50;57.60;;;;;;5038296;28;20466;-82
2022/04/28 07:57:37;;;;;;;20.80;10.13;;;14.60;57.40;;;;;;5036947;28;20472;-82
2022/04/28 08:00:07;;;;;;;17.42;9.57;;;14.60;57.60;;;;;;5036799;28;20372;-82
2022/04/28 08:02:33;;;;;;;16.75;9.85;;;14.70;57.50;;;;;;5036212;28;20456;-82
2022/04/28 08:04:59;;;;;;;17.65;10.55;;;14.70;57.20;;;;;;5036634;28;20036;-82
2022/04/28 08:07:25;;;;;;;19.42;11.00;;;14.70;57.10;;;;;;5036764;28;20026;-83
2022/04/28 08:09:51;;;;;;;22.80;9.90;;;14.80;57.20;;;;;;5036141;28;20037;-82
2022/04/28 08:12:18;;;;;;;20.90;10.93;;;14.70;57.30;;;;;;5035953;28;20018;-82
2022/04/28 08:14:43;;;;;;;16.98;9.68;;;14.70;57.40;;;;;;5036081;28;20364;-82
2022/04/28 08:17:09;;;;;;;16.90;9.52;;;14.70;57.60;;;;;;5031718;28;20041;-82
2022/04/28 08:19:35;;;;;;;17.13;9.55;;;14.70;57.50;;;;;;5016636;28;20715;-83
2022/04/28 08:22:01;;;;;;;19.60;9.90;;;14.80;57.50;;;;;;5016229;28;20054;-83
2022/04/28 08:24:27;;;;;;;18.48;9.40;;;14.80;57.60;;;;;;5029692;28;20492;-82
2022/04/28 08:26:54;;;;;;;21.02;9.55;;;14.80;57.30;;;;;;5036311;28;20033;-83
2022/04/28 08:29:21;;;;;;;17.77;10.05;;;14.90;57.30;;;;;;5036106;28;20029;-82
2022/04/28 08:31:46;;;;;;;18.13;10.50;;;15.00;56.90;;;;;;5035816;28;20033;-82
2022/04/28 08:34:14;;;;;;;17.27;9.85;;;14.90;57.00;;;;;;5036093;28;20029;-83
2022/04/28 08:36:42;;;;;;;20.40;9.85;;;14.90;56.90;;;;;;5035653;28;20290;-82
2022/04/28 08:39:08;;;;;;;19.30;9.43;;;15.00;57.00;;;;;;5035808;28;20072;-83
2022/04/28 08:41:36;;;;;;;16.85;9.95;;;15.20;56.60;;;;;;5034819;28;20053;-83
2022/04/28 08:44:04;;;;;;;17.17;9.85;;;15.30;56.30;;;;;;5034179;28;20032;-83
2022/04/28 08:49:15;;;;;;;21.10;9.55;;;15.20;55.60;;;;;;5035542;28;20061;-83
2022/04/28 08:51:42;;;;;;;16.80;9.82;;;15.30;55.90;;;;;;5042013;28;20496;-83
2022/04/28 08:54:13;;;;;;;17.92;9.82;;;15.40;55.60;;;;;;5055976;28;20070;-82
2022/04/28 08:56:42;;;;;;;16.02;8.93;;;15.50;54.90;;;;;;5055786;28;20108;-83
2022/04/28 08:59:08;;;;;;;18.42;10.75;;;15.70;54.80;;;;;;5034833;28;20374;-82
2022/04/28 09:01:33;;;;;;;17.75;9.52;;;15.80;54.10;;;;;;5015894;28;20021;-82
2022/04/28 09:04:04;;;;;;;20.45;9.20;;;15.90;54.30;;;;;;5015899;28;20358;-82
2022/04/28 09:06:34;;;;;;;21.08;9.52;;;16.30;53.60;;;;;;5026478;28;20475;-82
2022/04/28 09:09:01;;;;;;;;;;;16.80;52.80;;;;;;5035983;28;20037;-82
2022/04/28 09:11:28;;;;;;;13.30;8.82;;;17.50;51.00;;;;;;5035399;28;19908;-83
2022/04/28 09:14:09;;;;;;;17.00;9.18;;;18.30;50.00;;;;;;5035148;28;20032;-82
2022/04/28 09:16:59;;;;;;;13.82;8.48;;;19.00;46.60;;;;;;5034978;28;20507;-83
2022/04/28 09:19:37;;;;;;;15.43;9.57;;;19.40;45.90;;;;;;5035507;28;20510;-84
2022/04/28 09:22:06;;;;;;;16.90;8.02;;;19.30;45.20;;;;;;5034059;28;20083;-83
2022/04/28 09:24:33;;;;;;;14.50;8.95;;;19.10;45.00;;;;;;5034107;28;20021;-83
2022/04/28 09:26:59;;;;;;;14.05;9.02;;;18.80;46.30;;;;;;5018254;28;20033;-83
2022/04/28 09:29:29;;;;;;;13.90;8.88;;;18.60;46.40;;;;;;5015419;28;20435;-83
2022/04/28 09:31:56;;;;;;;17.38;8.85;;;18.50;46.70;;;;;;5015537;28;20064;-83
2022/04/28 09:34:25;;;;;;;13.82;8.98;;;18.50;47.20;;;;;;5018625;28;20025;-83
2022/04/28 09:36:51;;;;;;;15.60;9.50;;;19.00;46.40;;;;;;5035164;28;20030;-83
2022/04/28 09:44:51;;;;;;;13.20;9.32;;;20.60;41.70;;;;;;5016372;28;20040;-82
2022/04/28 09:47:21;;;;;;;13.35;8.65;;;21.30;41.90;;;;;;5015387;28;20594;-83
2022/04/28 09:49:52;;;;;;;;;;;21.50;40.30;;;;;;5015847;28;20132;-83
2022/04/28 09:52:28;;;;;;;13.90;8.63;;;21.30;41.90;;;;;;5038898;28;19919;-83
2022/04/28 09:54:58;;;;;;;12.18;8.00;;;21.30;41.10;;;;;;5054884;28;20028;-83
2022/04/28 09:57:24;;;;;;;13.13;8.23;;;21.00;42.10;;;;;;5054896;28;20062;-83
2022/04/28 09:59:55;;;;;;;14.25;9.05;;;20.80;42.30;;;;;;5045465;28;20266;-82
2022/04/28 10:02:23;;;;;;;11.23;7.57;;;20.50;43.20;;;;;;5034930;28;20039;-84
2022/04/28 10:04:49;;;;;;;15.18;8.77;;;20.30;43.80;;;;;;5033694;28;20029;-82
2022/04/28 10:07:16;;;;;;;15.13;8.75;;;19.80;43.90;;;;;;5015629;28;20038;-82
2022/04/28 10:09:45;;;;;;;14.20;7.85;;;19.80;44.30;;;;;;5014828;28;20504;-83
2022/04/28 10:12:14;;;;;;;14.63;8.48;;;19.80;44.00;;;;;;5029247;28;20430;-83
2022/04/28 10:14:41;;;;;;;17.02;8.80;;;19.80;44.70;;;;;;5018245;28;20048;-83
2022/04/28 10:17:15;;;;;;;12.40;8.20;;;19.80;44.50;;;;;;5015192;28;20018;-83
2022/04/28 10:19:46;;;;;;;14.55;8.32;;;20.20;45.10;;;;;;5015243;28;20116;-83
2022/04/28 10:22:15;;;;;;;13.73;8.85;;;20.60;43.40;;;;;;5025003;28;20036;-83
2022/04/28 10:33:18;;;;;;;15.48;6.90;;;21.50;42.00;;;;;;5015097;28;20045;-83
2022/04/28 10:35:50;;;;;;;11.15;7.13;;;21.30;42.10;;;;;;5034509;28;20029;-83
2022/04/28 10:38:16;;;;;;;9.60;7.03;;;21.40;42.30;;;;;;5038244;28;20033;-83
2022/04/28 10:40:56;;;;;;;10.30;7.15;;;21.40;42.20;;;;;;5037890;28;20395;-83
2022/04/28 10:43:24;;;;;;;10.50;7.55;;;21.40;42.20;;;;;;5038060;28;20026;-83
2022/04/28 10:45:51;;;;;;;10.25;6.53;;;21.30;42.20;;;;;;5036925;28;20121;-84
2022/04/28 10:48:29;;;;;;;9.30;6.43;;;21.10;41.50;;;;;;5036795;28;20056;-83
2022/04/28 10:51:02;;;;;;;11.63;6.53;;;21.10;41.90;;;;;;5023112;28;20403;-83
2022/04/28 10:53:28;;;;;;;10.32;6.28;;;21.10;42.10;;;;;;5058114;28;20147;-84
2022/04/28 10:55:53;;;;;;;8.25;5.72;;;21.20;42.20;;;;;;5058185;28;20056;-83
2022/04/28 10:58:24;;;;;;;12.45;6.38;;;21.30;42.00;;;;;;5042096;28;20036;-82
2022/04/28 11:00:58;;;;;;;11.05;7.00;;;21.20;41.20;;;;;;5036872;28;20025;-83
2022/04/28 11:03:50;;;;;;;9.82;6.32;;;21.40;41.10;;;;;;5037620;28;20029;-82
2022/04/28 11:06:27;;;;;;;9.48;6.50;;;21.60;41.40;;;;;;5037407;28;20029;-83
2022/04/28 11:08:55;;;;;;;8.95;6.05;;;21.80;41.00;;;;;;5037876;28;20463;-81
2022/04/28 11:11:21;;;;;;;10.95;6.43;;;22.00;40.90;;;;;;5036435;28;20083;-82
2022/04/28 11:13:57;;;;;;;10.07;5.38;;;22.20;41.00;;;;;;5037031;28;20037;-82
2022/04/28 11:16:24;;;;;;;9.88;6.13;;;22.10;41.30;;;;;;5036760;28;20022;-83
2022/04/28 11:18:50;;;;;;;9.13;6.07;;;22.20;40.90;;;;;;5036882;28;20101;-83
2022/04/28 11:21:16;;;;;;;9.32;6.10;;;22.30;39.50;;;;;;5037289;28;20021;-83
2022/04/28 11:23:45;;;;;;;9.88;6.07;;;22.20;39.60;;;;;;5036270;28;20945;-82
2022/04/28 11:26:11;;;;;;;8.07;5.47;;;21.90;39.10;;;;;;5037817;28;20029;-82
2022/04/28 11:28:39;;;;;;;8.57;5.38;;;21.80;39.50;;;;;;5036749;28;20037;-82
2022/04/28 11:31:11;;;;;;;12.65;6.60;;;21.60;39.90;;;;;;5036371;28;20037;-81
2022/04/28 11:33:42;;;;;;;7.50;5.05;;;21.50;39.90;;;;;;5019948;28;20030;-81
2022/04/28 11:36:34;;;;;;;8.57;5.65;;;21.50;40.10;;;;;;5017294;28;20556;-82
2022/04/28 11:39:02;;;;;;;9.30;6.20;;;21.30;39.70;;;;;;5017727;28;20052;-82
2022/04/28 11:41:31;;;;;;;10.38;6.20;;;21.30;39.70;;;;;;5017417;28;20430;-82
2022/04/28 11:44:06;;;;;;;8.82;5.90;;;21.60;40.20;;;;;;5049347;28;20135;-82
2022/04/28 11:46:34;;;;;;;9.68;5.93;;;21.70;39.70;;;;;;5017340;28;20021;-82
2022/04/28 11:49:00;;;;;;;10.23;5.50;;;21.60;39.80;;;;;;5034310;28;21865;-82
2022/04/28 11:51:25;;;;;;;9.00;4.65;;;21.70;39.40;;;;;;5040169;28;20094;-83
2022/04/28 11:53:53;;;;;;;6.57;4.80;;;21.90;39.10;;;;;;5056591;28;20112;-83
2022/04/28 11:56:23;;;;;;;7.70;4.43;;;22.20;39.50;;;;;;5040663;28;20017;-83
2022/04/28 11:58:51;;;;;;;10.32;4.93;;;22.20;38.30;;;;;;5036896;28;20103;-83
2022/04/28 12:01:20;;;;;;;7.80;5.18;;;22.30;38.60;;;;;;5035251;28;20021;-83
2022/04/28 12:03:53;;;;;;;6.03;4.20;;;22.20;38.00;;;;;;5016775;28;20034;-83
2022/04/28 12:06:21;;;;;;;7.32;4.20;;;22.20;38.10;;;;;;5027879;28;20087;-83
2022/04/28 12:08:50;;;;;;;6.75;4.47;;;22.10;37.90;;;;;;5036675;28;20026;-83
2022/04/28 12:19:31;;;;;;;6.00;4.15;;;22.60;37.00;;;;;;5016688;28;20052;-83
2022/04/28 12:22:03;;;;;;;6.45;3.72;;;22.50;36.60;;;;;;5017340;28;20407;-83
2022/04/28 12:24:35;;;;;;;5.80;3.80;;;22.30;38.10;;;;;;5023602;28;20458;-83
2022/04/28 12:27:07;;;;;;;6.38;4.00;;;22.30;38.20;;;;;;5036509;28;20053;-83
2022/04/28 12:29:47;;;;;;;5.68;3.85;;;22.10;37.90;;;;;;5036426;28;20057;-82
2022/04/28 12:32:14;;;;;;;4.60;3.30;;;22.20;37.90;;;;;;5035597;28;20028;-83
2022/04/28 12:34:40;;;;;;;6.82;3.75;;;22.10;37.10;;;;;;5035188;28;20033;-82
2022/04/28 12:37:05;;;;;;;4.72;3.55;;;22.30;38.70;;;;;;5036280;28;20117;-83
2022/04/28 12:39:34;;;;;;;4.28;3.50;;;22.50;38.20;;;;;;5034946;28;20038;-82
2022/04/28 12:42:10;;;;;;;4.50;3.28;;;22.70;37.60;;;;;;5035549;28;20040;-83
2022/04/28 12:44:44;;;;;;;5.05;3.47;;;22.80;37.20;;;;;;5035906;28;20037;-83
2022/04/28 12:47:12;;;;;;;6.63;3.53;;;22.80;36.50;;;;;;5035578;28;20029;-82
2022/04/28 12:49:48;;;;;;;5.15;3.50;;;22.70;36.00;;;;;;5035469;28;20073;-83
2022/04/28 12:52:27;;;;;;;4.93;2.97;;;22.70;35.80;;;;;;5046974;28;20593;-84
2022/04/28 12:55:04;;;;;;;6.43;3.47;;;22.70;37.00;;;;;;5054361;28;20029;-83
2022/04/28 12:57:30;;;;;;;6.70;3.50;;;22.70;36.60;;;;;;5032635;28;20025;-81
2022/04/28 12:59:59;;;;;;;4.93;3.28;;;22.80;37.30;;;;;;5015470;28;20054;-83
2022/04/28 13:02:30;;;;;;;5.10;3.88;;;22.70;36.10;;;;;;5020062;28;20056;-82
2022/04/28 13:05:12;;;;;;;5.07;3.72;;;22.70;37.00;;;;;;5035820;28;20029;-83
2022/04/28 13:07:42;;;;;;;5.10;3.20;;;22.70;38.00;;;;;;5034774;28;20045;-83
2022/04/28 13:10:10;;;;;;;6.03;3.38;;;22.70;37.30;;;;;;5035427;28;20525;-83
2022/04/28 13:12:36;;;;;;;7.07;3.35;;;22.70;37.30;;;;;;5035489;28;20047;-82
2022/04/28 13:15:04;;;;;;;6.55;3.67;;;22.90;37.70;;;;;;5034939;28;20026;-82
2022/04/28 13:17:30;;;;;;;5.30;3.70;;;22.90;37.90;;;;;;5035648;28;20021;-82
2022/04/28 13:19:56;;;;;;;6.07;4.18;;;23.10;37.10;;;;;;5035250;28;20803;-82
2022/04/28 13:22:22;;;;;;;5.05;3.75;;;23.00;37.60;;;;;;5035151;28;20048;-83
2022/04/28 13:24:48;;;;;;;7.10;4.57;;;23.00;35.70;;;;;;5030405;28;20163;-82
2022/04/28 13:27:14;;;;;;;5.00;3.80;;;22.70;37.20;;;;;;5015854;28;20049;-82
2022/04/28 13:29:39;;;;;;;9.43;4.20;;;22.80;37.70;;;;;;5015555;28;20036;-82
2022/04/28 13:32:07;;;;;;;9.35;4.53;;;22.90;37.30;;;;;;5029114;28;20025;-83
2022/04/28 13:34:33;;;;;;;5.85;3.67;;;23.10;37.30;;;;;;5035152;28;20080;-82
2022/04/28 13:36:59;;;;;;;6.38;3.60;;;22.90;37.80;;;;;;5035279;28;20025;-82
2022/04/28 13:39:24;;;;;;;5.53;4.03;;;22.80;38.60;;;;;;5035213;28;20030;-81
2022/04/28 13:41:50;;;;;;;7.70;3.50;;;22.80;37.60;;;;;;5034869;28;20033;-82
2022/04/28 13:44:17;;;;;;;6.00;4.10;;;22.90;38.20;;;;;;5031185;28;20053;-81
2022/04/28 13:46:43;;;;;;;5.82;3.92;;;22.70;37.20;;;;;;5030366;28;20387;-82
2022/04/28 13:49:09;;;;;;;5.95;3.15;;;22.80;38.00;;;;;;5017548;28;20038;-82
2022/04/28 13:51:34;;;;;;;6.47;3.85;;;22.90;38.10;;;;;;5024771;28;20469;-82
2022/04/28 13:54:00;;;;;;;5.53;3.58;;;22.80;37.50;;;;;;5034451;28;20041;-82
2022/04/28 13:56:26;;;;;;;6.13;3.63;;;23.30;37.80;;;;;;5028525;28;20033;-85
2022/04/28 13:58:51;;;;;;;6.18;4.68;;;23.20;37.20;;;;;;5033716;28;20037;-82
2022/04/28 14:01:18;;;;;;;6.00;3.80;;;23.30;36.50;;;;;;5032335;28;20120;-83
2022/04/28 14:03:44;;;;;;;7.45;3.47;;;23.40;37.30;;;;;;5033269;28;20124;-80
2022/04/28 14:06:10;;;;;;;6.40;3.55;;;23.50;38.00;;;;;;5032741;28;20076;-80
2022/04/28 14:08:36;;;;;;;5.72;3.80;;;22.80;35.30;;;;;;5018476;28;20476;-80
2022/04/28 14:11:07;;;;;;;7.38;4.28;;;22.90;37.20;;;;;;5030201;28;20051;-81
2022/04/28 14:13:34;;;;;;;6.03;3.75;;;23.00;37.90;;;;;;5034416;28;20025;-80
2022/04/28 14:16:01;;;;;;;5.43;3.63;;;23.30;38.20;;;;;;5035175;28;20032;-80